Flight Track Log - Related Links

Times and Time Zones

All times are in EDT time to prevent confusion due to time zone crossing. See the CRA445 flight status page for this flight to view local times or setup timezone preferences in your user account.


Time Position Orientation Groundspeed Altitude Reporting Facility
EDT Latitude Longitude Course Direction KTS MPH feet Rate Location/Type
Wed 05:09:00 PM 60.4163 -134.4608 133° Southeast  Level FlightAware Approximate
Wed 05:10:00 PM 60.3690 -134.3595 133° Southeast  Level FlightAware Approximate
Wed 05:11:00 PM 60.3210 -134.2598 137° Southeast  Level FlightAware Approximate
Wed 05:12:00 PM 60.2710 -134.1644 137° Southeast  Level FlightAware Approximate
Wed 05:13:00 PM 60.2209 -134.0692 137° Southeast  Level FlightAware Approximate
Wed 05:14:00 PM 60.1708 -133.9744 137° Southeast  Level FlightAware Approximate
Wed 05:15:00 PM 60.1217 -133.8773 135° Southeast  Level FlightAware Approximate
Wed 05:16:00 PM 60.0728 -133.7803 135° Southeast  Level FlightAware Approximate
Wed 05:17:00 PM 60.0237 -133.6835 135° Southeast  Level FlightAware Approximate
Wed 05:18:00 PM 59.9746 -133.5871 135° Southeast  Level FlightAware Approximate
Wed 05:19:00 PM 59.9254 -133.4909 136° Southeast  Level FlightAware Approximate
Wed 05:20:00 PM 59.8762 -133.3951 136° Southeast  Level FlightAware Approximate
Wed 05:21:00 PM 59.8269 -133.2995 136° Southeast  Level FlightAware Approximate
Wed 05:22:00 PM 59.7775 -133.2041 136° Southeast  Level FlightAware Approximate
Wed 05:23:00 PM 59.7280 -133.1091 136° Southeast  Level FlightAware Approximate
Wed 05:24:00 PM 59.6785 -133.0144 136° Southeast  Level FlightAware Approximate
Wed 05:25:00 PM 59.6289 -132.9199 136° Southeast  Level FlightAware Approximate
Wed 05:26:00 PM 59.5792 -132.8257 136° Southeast  Level FlightAware Approximate
Wed 05:27:00 PM 59.5295 -132.7318 136° Southeast  Level FlightAware Approximate
Wed 05:28:00 PM 59.4797 -132.6382 136° Southeast  Level FlightAware Approximate
Wed 05:29:00 PM 59.4298 -132.5448 136° Southeast  Level FlightAware Approximate
Wed 05:30:00 PM 59.3799 -132.4517 136° Southeast  Level FlightAware Approximate
Wed 05:31:00 PM 59.3299 -132.3589 137° Southeast  Level FlightAware Approximate
Wed 05:32:00 PM 59.2798 -132.2664 137° Southeast  Level FlightAware Approximate
Wed 05:33:00 PM 59.2297 -132.1741 137° Southeast  Level FlightAware Approximate
Wed 05:34:00 PM 59.1795 -132.0821 137° Southeast  Level FlightAware Approximate
Wed 05:35:00 PM 59.1292 -131.9904 137° Southeast  Level FlightAware Approximate
Wed 05:36:00 PM 59.0789 -131.8989 137° Southeast  Level FlightAware Approximate
Wed 05:37:00 PM 59.0285 -131.8078 137° Southeast  Level FlightAware Approximate
Wed 05:38:00 PM 58.9781 -131.7168 137° Southeast  Level FlightAware Approximate
Wed 05:39:00 PM 58.9276 -131.6262 137° Southeast  Level FlightAware Approximate
Wed 05:40:00 PM 58.8770 -131.5358 137° Southeast  Level FlightAware Approximate
Wed 05:41:00 PM 58.8263 -131.4457 137° Southeast  Level FlightAware Approximate
Wed 05:42:00 PM 58.7756 -131.3558 137° Southeast  Level FlightAware Approximate
Wed 05:43:00 PM 58.7248 -131.2662 137° Southeast  Level FlightAware Approximate
Wed 05:44:00 PM 58.6740 -131.1769 138° Southeast  Level FlightAware Approximate
Wed 05:45:00 PM 58.6231 -131.0878 138° Southeast  Level FlightAware Approximate
Wed 05:46:00 PM 58.5722 -130.9990 138° Southeast  Level FlightAware Approximate
Wed 05:47:00 PM 58.5212 -130.9104 138° Southeast  Level FlightAware Approximate
Wed 05:48:00 PM 58.4701 -130.8221 138° Southeast  Level FlightAware Approximate
Wed 05:49:00 PM 58.4190 -130.7341 138° Southeast  Level FlightAware Approximate
Wed 05:50:00 PM 58.3678 -130.6463 138° Southeast  Level FlightAware Approximate
Wed 05:51:00 PM 58.3165 -130.5587 138° Southeast  Level FlightAware Approximate
Wed 05:52:00 PM 58.2652 -130.4714 138° Southeast  Level FlightAware Approximate
Wed 05:53:00 PM 58.2138 -130.3844 138° Southeast  Level FlightAware Approximate
Wed 05:54:00 PM 58.1624 -130.2976 138° Southeast  Level FlightAware Approximate
Wed 05:55:00 PM 58.1109 -130.2111 138° Southeast  Level FlightAware Approximate
Wed 05:56:00 PM 58.0593 -130.1248 138° Southeast  Level FlightAware Approximate
Wed 05:57:00 PM 58.0077 -130.0388 139° Southeast  Level FlightAware Approximate
Wed 05:58:00 PM 57.9561 -129.9530 139° Southeast  Level FlightAware Approximate
Wed 05:59:00 PM 57.9044 -129.8675 139° Southeast  Level FlightAware Approximate
Wed 06:00:00 PM 57.8526 -129.7822 139° Southeast  Level FlightAware Approximate
Wed 06:01:00 PM 57.8007 -129.6971 139° Southeast  Level FlightAware Approximate
Wed 06:02:00 PM 57.7488 -129.6123 139° Southeast  Level FlightAware Approximate
Wed 06:03:00 PM 57.6969 -129.5278 139° Southeast  Level FlightAware Approximate
Wed 06:04:00 PM 57.6449 -129.4435 139° Southeast  Level FlightAware Approximate
Wed 06:05:00 PM 57.5928 -129.3594 139° Southeast  Level FlightAware Approximate
Wed 06:06:00 PM 57.5407 -129.2756 139° Southeast  Level FlightAware Approximate
Wed 06:07:00 PM 57.4885 -129.1920 139° Southeast  Level FlightAware Approximate
Wed 06:08:00 PM 57.4363 -129.1086 139° Southeast  Level FlightAware Approximate
Wed 06:09:00 PM 57.3840 -129.0255 139° Southeast  Level FlightAware Approximate
Wed 06:10:00 PM 57.3317 -128.9426 139° Southeast  Level FlightAware Approximate
Wed 06:11:00 PM 57.2793 -128.8600 140° Southeast  Level FlightAware Approximate
Wed 06:12:00 PM 57.2268 -128.7776 140° Southeast  Level FlightAware Approximate
Wed 06:13:00 PM 57.1743 -128.6954 140° Southeast  Level FlightAware Approximate
Wed 06:14:00 PM 57.1218 -128.6135 140° Southeast  Level FlightAware Approximate
Wed 06:15:00 PM 57.0692 -128.5318 140° Southeast  Level FlightAware Approximate
Wed 06:16:00 PM 57.0165 -128.4503 140° Southeast  Level FlightAware Approximate
Wed 06:17:00 PM 56.9638 -128.3690 140° Southeast  Level FlightAware Approximate
Wed 06:18:00 PM 56.9110 -128.2880 140° Southeast  Level FlightAware Approximate
Wed 06:19:00 PM 56.8582 -128.2072 140° Southeast  Level FlightAware Approximate
Wed 06:20:00 PM 56.8053 -128.1266 140° Southeast  Level FlightAware Approximate
Wed 06:21:00 PM 56.7524 -128.0463 140° Southeast  Level FlightAware Approximate
Wed 06:22:00 PM 56.6994 -127.9662 140° Southeast  Level FlightAware Approximate
Wed 06:23:00 PM 56.6464 -127.8863 140° Southeast  Level FlightAware Approximate
Wed 06:24:00 PM 56.6000 -127.8009 90° East  Level FlightAware Approximate
Wed 06:25:00 PM 56.5471 -127.7216 141° Southeast  Level FlightAware Approximate
Wed 06:26:00 PM 56.4937 -127.6428 141° Southeast  Level FlightAware Approximate
Wed 06:27:00 PM 56.4402 -127.5643 141° Southeast  Level FlightAware Approximate
Wed 06:28:00 PM 56.3867 -127.4860 141° Southeast  Level FlightAware Approximate
Wed 06:29:00 PM 56.3332 -127.4079 141° Southeast  Level FlightAware Approximate
Wed 06:30:00 PM 56.2796 -127.3300 141° Southeast  Level FlightAware Approximate
Wed 06:31:00 PM 56.2260 -127.2523 141° Southeast  Level FlightAware Approximate
Wed 06:32:00 PM 56.1723 -127.1749 141° Southeast  Level FlightAware Approximate
Wed 06:33:00 PM 56.1186 -127.0977 141° Southeast  Level FlightAware Approximate
Wed 06:34:00 PM 56.0648 -127.0207 141° Southeast  Level FlightAware Approximate
Wed 06:35:00 PM 56.0109 -126.9438 141° Southeast  Level FlightAware Approximate
Wed 06:36:00 PM 55.9571 -126.8673 141° Southeast  Level FlightAware Approximate
Wed 06:37:00 PM 55.9032 -126.7909 142° Southeast  Level FlightAware Approximate
Wed 06:38:00 PM 55.8492 -126.7147 142° Southeast  Level FlightAware Approximate
Wed 06:38:16 PM 55.7000 -126.2833 142° Southeast 260 299 19,100  Level Vancouver Center
Wed 06:39:00 PM 55.7952 -126.6388 142° Southeast  Level FlightAware Approximate
Wed 06:39:16 PM 55.6500 -126.1833 132° Southeast 250 288 19,100  Level Vancouver Center
Wed 06:40:00 PM 55.7411 -126.5630 142° Southeast  Level FlightAware Approximate
Wed 06:40:16 PM 55.6000 -126.1333 151° Southeast 250 288 19,100  Level Vancouver Center
Wed 06:41:00 PM 55.6870 -126.4875 142° Southeast  Level FlightAware Approximate
Wed 06:41:16 PM 55.5500 -126.0333 131° Southeast 260 299 19,000  Level Vancouver Center
Wed 06:42:00 PM 55.6328 -126.4122 142° Southeast  Level FlightAware Approximate
Wed 06:42:16 PM 55.5000 -125.9667 143° Southeast 250 288 19,000  Level Vancouver Center
Wed 06:43:00 PM 55.5788 -126.3368 142° Southeast  Level FlightAware Approximate
Wed 06:43:16 PM 55.4333 -125.8833 145° Southeast 260 299 19,000  Level Vancouver Center
Wed 06:44:16 PM 55.3667 -125.8167 150° Southeast 270 311 19,100 33 Climbing Vancouver Center
Wed 06:46:16 PM 55.2500 -125.6333 138° Southeast 280 322 19,100  Level Vancouver Center
Wed 06:47:16 PM 55.1833 -125.5500 144° Southeast 280 322 19,100 -50 Level Vancouver Center
Wed 06:48:16 PM 55.1167 -125.4833 150° Southeast 280 322 19,000  Descending Vancouver Center
Wed 06:49:16 PM 55.0667 -125.4000 136° Southeast 270 311 19,100 50 Climbing Vancouver Center
Wed 06:50:16 PM 55.0000 -125.3333 150° Southeast 270 311 19,100  Level Vancouver Center
Wed 06:51:16 PM 54.9333 -125.2500 144° Southeast 270 311 19,100  Level Vancouver Center
Wed 06:52:16 PM 54.8833 -125.1667 136° Southeast 270 311 19,100 -50 Level Vancouver Center
Wed 06:53:16 PM 54.8167 -125.1000 150° Southeast 270 311 19,000 -50 Descending Vancouver Center
Wed 06:54:16 PM 54.7500 -125.0167 144° Southeast 270 311 19,000 50 Level Vancouver Center
Wed 06:55:16 PM 54.6833 -124.9500 150° Southeast 270 311 19,100 50 Climbing Vancouver Center
Wed 06:56:16 PM 54.6500 -124.8667 125° Southeast 270 311 19,100  Level Vancouver Center
Wed 06:57:16 PM 54.5833 -124.8000 150° Southeast 270 311 19,100  Level Vancouver Center
Wed 06:58:16 PM 54.5333 -124.7167 136° Southeast 270 311 19,100  Level Vancouver Center
Wed 06:59:16 PM 54.4667 -124.6333 144° Southeast 270 311 19,100 -50 Level Vancouver Center
Wed 07:00:16 PM 54.4000 -124.5667 150° Southeast 270 311 19,000 -50 Descending Vancouver Center
Wed 07:01:16 PM 54.3500 -124.4833 136° Southeast 270 311 19,000  Level Vancouver Center
Wed 07:02:16 PM 54.2833 -124.4167 150° Southeast 270 311 19,000  Level Vancouver Center
Wed 07:03:16 PM 54.2167 -124.3333 144° Southeast 270 311 19,000  Level Vancouver Center
Wed 07:04:16 PM 54.1667 -124.2500 136° Southeast 270 311 19,000  Level Vancouver Center
Wed 07:05:16 PM 54.1000 -124.2000 156° South 270 311 19,000 50 Level Vancouver Center
Wed 07:06:16 PM 54.0500 -124.1167 136° Southeast 270 311 19,100 50 Climbing Vancouver Center
Wed 07:07:16 PM 53.9833 -124.0167 139° Southeast 270 311 19,100 -50 Level Vancouver Center
Wed 07:08:16 PM 53.9333 -123.9333 136° Southeast 270 311 19,000 -50 Descending Vancouver Center
Wed 07:09:16 PM 53.8833 -123.8500 135° Southeast 270 311 19,000  Level Vancouver Center
Wed 07:10:16 PM 53.8167 -123.7667 144° Southeast 270 311 19,000 50 Level Vancouver Center
Wed 07:11:16 PM 53.7667 -123.6833 135° Southeast 260 299 19,100 50 Climbing Vancouver Center
Wed 07:12:16 PM 53.7000 -123.6333 156° South 260 299 19,100 -50 Level Vancouver Center
Wed 07:13:16 PM 53.6500 -123.5500 135° Southeast 260 299 19,000 -50 Descending Vancouver Center
Wed 07:14:16 PM 53.5833 -123.4833 149° Southeast 260 299 19,000  Level Vancouver Center
Wed 07:15:16 PM 53.5167 -123.4333 156° South 260 299 19,000 50 Level Vancouver Center
Wed 07:16:16 PM 53.4667 -123.3833 149° Southeast 260 299 19,100  Climbing Vancouver Center
Wed 07:17:16 PM 53.4000 -123.3000 143° Southeast 260 299 19,000 -50 Descending Vancouver Center
Wed 07:18:16 PM 53.3333 -123.2333 149° Southeast 260 299 19,000 50 Level Vancouver Center
Wed 07:19:16 PM 53.2833 -123.1500 135° Southeast 260 299 19,100 -50 Climbing Vancouver Center
Wed 07:20:16 PM 53.2167 -123.1000 156° South 260 299 18,900 -50 Descending Vancouver Center
Wed 07:21:16 PM 53.1667 -123.0167 135° Southeast 260 299 19,000 50 Climbing Vancouver Center
Wed 07:22:16 PM 53.0833 -122.9667 160° South 260 299 19,000  Level Vancouver Center
Wed 07:23:16 PM 53.0333 -122.8833 135° Southeast 260 299 19,000 -250 Level Vancouver Center
Wed 07:24:16 PM 52.9667 -122.8000 143° Southeast 260 299 18,500 -750 Descending Vancouver Center
Wed 07:25:16 PM 52.9000 -122.7500 156° South 280 322 17,500 -950 Descending Vancouver Center
Wed 07:26:16 PM 52.8333 -122.6667 143° Southeast 290 334 16,600 -950 Descending Vancouver Center
Wed 07:27:16 PM 52.7667 -122.5833 143° Southeast 300 345 15,600 -950 Descending Vancouver Center
Wed 07:28:16 PM 52.7000 -122.5000 143° Southeast 300 345 14,700 -1,100 Descending Vancouver Center
Wed 07:29:16 PM 52.6500 -122.4500 149° Southeast 270 311 13,400 -1,250 Descending Vancouver Center
Wed 07:30:16 PM 52.5833 -122.3667 143° Southeast 250 288 12,200 -1,100 Descending Vancouver Center
Wed 07:31:16 PM 52.5333 -122.3167 149° Southeast 240 276 11,200 -600 Descending Vancouver Center
Wed 07:32:16 PM 52.4833 -122.2333 135° Southeast 240 276 11,000 -100 Descending Vancouver Center
Wed 07:33:16 PM 52.4167 -122.1833 155° Southeast 250 288 11,000  Level Vancouver Center
Wed 07:34:16 PM 52.3667 -122.1333 149° Southeast 250 288 11,000  Level Vancouver Center
Wed 07:35:16 PM 52.3167 -122.0500 134° Southeast 250 288 11,000  Level Vancouver Center
Wed 07:36:16 PM 52.2500 -122.0000 155° Southeast 250 288 11,000  Level Vancouver Center
Wed 07:37:16 PM 52.2000 -121.9167 134° Southeast 250 288 11,000 -50 Level Vancouver Center
Wed 07:38:16 PM 52.1333 -121.8667 155° Southeast 260 299 10,900  Descending Vancouver Center
Wed 07:39:16 PM 52.0833 -121.7833 134° Southeast 260 299 11,000 50 Climbing Vancouver Center
Wed 07:40:16 PM 52.0000 -121.7167 154° Southeast 250 288 11,000  Level Vancouver Center
Wed 07:41:16 PM 51.9500 -121.6500 141° Southeast 250 288 11,000 50 Level Vancouver Center
Wed 07:42:16 PM 51.9000 -121.6000 148° Southeast 260 299 11,100  Climbing Vancouver Center
Wed 07:43:16 PM 51.8500 -121.5333 141° Southeast 260 299 11,000  Descending Vancouver Center
Wed 07:44:16 PM 51.7833 -121.4500 142° Southeast 260 299 11,100 100 Climbing Vancouver Center
Wed 07:45:16 PM 51.7167 -121.3667 142° Southeast 270 311 11,200 -50 Climbing Vancouver Center
Wed 07:46:16 PM 51.6667 -121.3167 148° Southeast 270 311 11,000 -50 Descending Vancouver Center
Wed 07:47:16 PM 51.6000 -121.2667 155° Southeast 270 311 11,100 100 Climbing Vancouver Center
Wed 07:48:16 PM 51.5333 -121.2000 148° Southeast 260 299 11,200 -50 Climbing Vancouver Center
Wed 07:49:16 PM 51.4667 -121.1500 155° Southeast 270 311 11,000 -50 Descending Vancouver Center
Wed 07:50:16 PM 51.4167 -121.1000 148° Southeast 270 311 11,100 50 Climbing Vancouver Center
Wed 07:51:16 PM 51.3500 -121.0500 155° Southeast 260 299 11,100 -50 Level Vancouver Center
Wed 07:52:16 PM 51.2667 -120.9667 148° Southeast 260 299 11,000 -450 Descending Vancouver Center
Wed 07:53:16 PM 51.2000 -120.9167 155° Southeast 270 311 10,200 -800 Descending Vancouver Center
Wed 07:54:16 PM 51.1500 -120.8667 148° Southeast 260 299 9,400 -700 Descending Vancouver Center
Wed 07:55:16 PM 51.0833 -120.8167 155° Southeast 260 299 8,800 -600 Descending Vancouver Center
Wed 07:56:16 PM 51.0167 -120.7667 155° Southeast 250 288 8,200 -700 Descending Vancouver Center
Wed 07:57:16 PM 50.9667 -120.7167 148° Southeast 240 276 7,400 -950 Descending Vancouver Center
Wed 07:58:16 PM 50.9000 -120.6667 155° Southeast 240 276 6,300 -1,050 Descending Vancouver Center
Wed 07:59:16 PM 50.8500 -120.6167 148° Southeast 220 253 5,300 -1,000 Descending Vancouver Center
Wed 08:00:16 PM 50.8167 -120.5500 128° Southeast 210 242 4,300 -1,000 Descending Vancouver Center
Wed 08:03:00 PM 50.7110 -120.4554 128° Southeast  Level FlightAware Approximate

Login

Don't have an account? Register now (free) for customized features, flight alerts, and more!